createdAt,value
2023-01-13T00:01:09.550Z,69.84
2023-01-13T00:03:38.347Z,70.09
2023-01-13T00:06:07.030Z,69.74
2023-01-13T00:08:35.927Z,71.38
2023-01-13T00:11:04.115Z,70.85
2023-01-13T00:13:35.306Z,71.29
2023-01-13T00:16:05.521Z,70.08
2023-01-13T00:18:37.009Z,70.60
2023-01-13T00:21:07.393Z,70.95
2023-01-13T00:23:36.602Z,70.37
2023-01-13T00:26:07.629Z,69.97
2023-01-13T00:28:35.981Z,70.43
2023-01-13T00:31:08.635Z,69.91
2023-01-13T00:33:39.096Z,70.53
2023-01-13T00:36:08.928Z,70.28
2023-01-13T00:38:38.968Z,69.37
2023-01-13T00:41:08.674Z,70.19
2023-01-13T00:43:37.366Z,69.72
2023-01-13T00:46:06.978Z,70.02
2023-01-13T00:48:35.833Z,68.84
2023-01-13T00:51:07.359Z,69.69
2023-01-13T00:53:37.913Z,69.55
2023-01-13T00:56:07.957Z,70.11
2023-01-13T00:58:36.749Z,69.68
2023-01-13T01:01:06.470Z,69.84
2023-01-13T01:03:35.912Z,69.28
2023-01-13T01:06:09.046Z,69.28
2023-01-13T01:08:40.263Z,69.75
2023-01-13T01:11:09.982Z,69.72
2023-01-13T01:13:38.747Z,68.93
2023-01-13T01:16:08.353Z,68.98
2023-01-13T01:18:37.390Z,68.94
2023-01-13T01:21:07.843Z,68.70
2023-01-13T01:23:39.217Z,68.85
2023-01-13T01:26:09.051Z,68.19
2023-01-13T01:28:37.059Z,67.93
2023-01-13T01:31:08.352Z,67.72
2023-01-13T01:33:36.573Z,67.52
2023-01-13T01:36:06.859Z,68.34
2023-01-13T01:38:35.121Z,69.11
2023-01-13T01:41:03.253Z,69.90
2023-01-13T01:43:59.536Z,69.29
2023-01-13T01:46:29.300Z,69.97
2023-01-13T01:49:02.920Z,70.42
2023-01-13T01:51:36.576Z,70.70
2023-01-13T01:54:08.592Z,70.09
2023-01-13T01:56:37.582Z,70.85
2023-01-13T01:59:08.271Z,70.21
2023-01-13T02:01:36.708Z,69.66
2023-01-13T02:04:13.705Z,69.50
2023-01-13T02:06:44.191Z,69.67
2023-01-13T02:09:13.739Z,69.74
2023-01-13T02:11:59.005Z,70.72
2023-01-13T02:14:29.360Z,70.83
2023-01-13T02:17:12.230Z,72.29
2023-01-13T02:20:15.405Z,72.46
2023-01-13T02:23:03.894Z,72.10
2023-01-13T02:25:44.661Z,71.88
2023-01-13T02:28:37.524Z,71.56
2023-01-13T02:31:28.777Z,70.76
2023-01-13T02:34:05.780Z,70.10
2023-01-13T02:36:40.401Z,69.55
2023-01-13T02:39:16.134Z,68.63
2023-01-13T02:42:09.637Z,68.44
2023-01-13T02:44:43.954Z,68.47
2023-01-13T02:47:19.078Z,68.09
2023-01-13T02:49:51.642Z,68.02
2023-01-13T02:52:26.156Z,68.15
2023-01-13T02:54:58.948Z,67.41
2023-01-13T02:57:28.813Z,66.95
2023-01-13T02:59:57.922Z,66.67
2023-01-13T03:02:27.586Z,66.73
2023-01-13T03:04:58.179Z,66.91
2023-01-13T03:07:43.289Z,67.06
2023-01-13T03:10:20.267Z,67.27
2023-01-13T03:12:55.497Z,67.17
2023-01-13T03:15:29.066Z,67.26
2023-01-13T03:18:08.151Z,67.24
2023-01-13T03:20:42.444Z,67.49
2023-01-13T03:23:20.561Z,67.73
2023-01-13T03:25:57.579Z,67.93
2023-01-13T03:28:34.297Z,67.33
2023-01-13T03:31:08.089Z,67.61
2023-01-13T03:33:42.239Z,67.31
2023-01-13T03:36:15.054Z,67.15
2023-01-13T03:38:46.563Z,67.28
2023-01-13T03:41:19.368Z,67.31
2023-01-13T03:44:12.497Z,67.32
2023-01-13T03:46:46.349Z,67.71
2023-01-13T03:49:21.097Z,67.94
2023-01-13T03:51:56.453Z,68.43
2023-01-13T03:54:27.162Z,68.07
2023-01-13T03:56:59.662Z,68.03
2023-01-13T03:59:32.275Z,68.11
2023-01-13T04:02:05.966Z,67.72
2023-01-13T04:04:41.434Z,67.75
2023-01-13T04:07:18.542Z,67.97
2023-01-13T04:09:51.709Z,67.65
2023-01-13T04:12:26.112Z,69.24
2023-01-13T04:14:55.571Z,69.84
2023-01-13T04:17:24.826Z,68.90
2023-01-13T04:19:54.123Z,68.46
2023-01-13T04:22:22.058Z,68.04
2023-01-13T04:24:50.275Z,68.14
2023-01-13T04:27:18.245Z,68.41
2023-01-13T04:29:46.197Z,68.34
2023-01-13T04:32:14.370Z,68.28
2023-01-13T04:34:42.329Z,67.84
2023-01-13T04:37:11.955Z,67.45
2023-01-13T04:39:40.154Z,67.25
2023-01-13T04:42:08.631Z,67.42
2023-01-13T04:44:36.759Z,67.96
2023-01-13T04:47:05.728Z,68.17
2023-01-13T04:49:33.678Z,68.10
2023-01-13T04:52:04.050Z,68.81
2023-01-13T04:54:33.472Z,69.48
2023-01-13T04:57:01.525Z,69.76
2023-01-13T04:59:29.542Z,70.08
2023-01-13T05:01:57.696Z,70.23
2023-01-13T05:04:25.817Z,70.78
2023-01-13T05:06:53.935Z,71.20
2023-01-13T05:09:21.920Z,71.11
2023-01-13T05:12:09.337Z,71.81
2023-01-13T05:14:56.924Z,72.12
2023-01-13T05:17:26.749Z,73.92
2023-01-13T05:19:54.759Z,74.15
2023-01-13T05:22:39.974Z,74.38
2023-01-13T05:25:25.115Z,75.94
2023-01-13T05:27:55.828Z,76.62
2023-01-13T05:30:26.505Z,75.59
2023-01-13T05:32:54.660Z,75.38
2023-01-13T05:35:22.912Z,76.51
2023-01-13T05:37:51.109Z,76.77
2023-01-13T05:40:38.146Z,76.07
2023-01-13T05:43:24.769Z,75.49
2023-01-13T05:45:57.551Z,75.49
2023-01-13T05:48:29.772Z,75.98
2023-01-13T05:50:58.456Z,74.91
2023-01-13T05:53:27.389Z,75.46
2023-01-13T05:55:55.681Z,75.25
2023-01-13T05:58:27.737Z,75.57
2023-01-13T06:01:01.001Z,76.00
2023-01-13T06:03:29.221Z,76.01
2023-01-13T06:05:59.480Z,76.41
2023-01-13T06:08:27.653Z,76.12
2023-01-13T06:10:55.642Z,76.02
2023-01-13T06:13:25.462Z,75.62
2023-01-13T06:15:56.626Z,75.64
2023-01-13T06:18:24.831Z,75.77
2023-01-13T06:20:52.781Z,75.18
2023-01-13T06:23:21.297Z,75.12
2023-01-13T06:25:54.559Z,75.17
2023-01-13T06:28:22.665Z,74.94
2023-01-13T06:30:55.651Z,74.93
2023-01-13T06:33:29.677Z,74.19
2023-01-13T06:36:00.930Z,74.82
2023-01-13T06:38:31.968Z,74.34
2023-01-13T06:41:00.113Z,74.88
2023-01-13T06:43:27.147Z,74.86
2023-01-13T06:45:57.666Z,73.91
2023-01-13T06:48:29.678Z,73.69
2023-01-13T06:50:57.813Z,74.55
2023-01-13T06:53:25.926Z,74.55
2023-01-13T06:55:53.929Z,75.50
2023-01-13T06:58:22.022Z,74.80
2023-01-13T07:00:51.737Z,76.49
2023-01-13T07:03:21.542Z,75.00
2023-01-13T07:05:54.412Z,76.16
2023-01-13T07:08:23.211Z,74.95
2023-01-13T07:10:51.655Z,75.51
2023-01-13T07:13:37.640Z,75.29
2023-01-13T07:16:08.120Z,75.43
2023-01-13T07:18:38.098Z,75.53
2023-01-13T07:21:08.081Z,75.61
2023-01-13T07:23:38.647Z,75.97
2023-01-13T07:26:07.596Z,75.45
2023-01-13T07:28:36.050Z,76.19
2023-01-13T07:31:04.430Z,76.14
2023-01-13T07:33:33.483Z,74.74
2023-01-13T07:36:05.211Z,75.54
2023-01-13T07:38:34.379Z,75.44
2023-01-13T07:41:24.011Z,75.22
2023-01-13T07:43:52.306Z,74.63
2023-01-13T07:46:20.375Z,74.67
2023-01-13T07:48:49.520Z,75.10
2023-01-13T07:51:19.221Z,74.95
2023-01-13T07:53:47.333Z,74.84
2023-01-13T07:56:15.365Z,74.97
2023-01-13T07:58:44.373Z,75.20
2023-01-13T08:01:15.110Z,74.12
2023-01-13T08:03:43.112Z,73.43
2023-01-13T08:06:12.186Z,72.53
2023-01-13T08:08:41.570Z,73.27
2023-01-13T08:11:10.239Z,72.81
2023-01-13T08:13:38.996Z,72.40
2023-01-13T08:16:10.296Z,72.06
2023-01-13T08:18:40.965Z,71.21
2023-01-13T08:21:11.385Z,71.85
2023-01-13T08:23:39.799Z,71.07
2023-01-13T08:26:11.098Z,71.18
2023-01-13T08:28:41.355Z,70.55
2023-01-13T08:31:12.681Z,71.37
2023-01-13T08:33:43.176Z,71.63
2023-01-13T08:36:13.145Z,70.80
2023-01-13T08:38:41.999Z,70.31
2023-01-13T08:41:13.092Z,69.96
2023-01-13T08:43:41.257Z,70.59
2023-01-13T08:46:12.399Z,70.69
2023-01-13T08:48:40.547Z,71.26
2023-01-13T08:51:11.169Z,70.10
2023-01-13T08:53:40.965Z,69.20
2023-01-13T08:56:11.882Z,69.70
2023-01-13T08:58:40.953Z,69.21
2023-01-13T09:01:10.195Z,68.87
2023-01-13T09:03:39.207Z,67.70
2023-01-13T09:06:07.474Z,67.27
2023-01-13T09:08:35.939Z,66.53
2023-01-13T09:11:24.188Z,66.18
2023-01-13T09:13:52.848Z,66.78
2023-01-13T09:16:20.870Z,67.02
2023-01-13T09:18:48.970Z,66.00
2023-01-13T09:21:19.819Z,66.36
2023-01-13T09:23:48.220Z,66.70
2023-01-13T09:26:21.264Z,65.64
2023-01-13T09:28:49.288Z,65.23
2023-01-13T09:31:18.902Z,65.05
2023-01-13T09:34:04.581Z,64.80
2023-01-13T09:36:32.672Z,64.50
2023-01-13T09:39:00.658Z,64.36
2023-01-13T09:41:48.041Z,64.18
2023-01-13T09:44:23.435Z,65.39
2023-01-13T09:46:59.511Z,66.84
2023-01-13T09:49:34.877Z,65.17
2023-01-13T09:52:09.152Z,64.57
2023-01-13T09:54:42.961Z,62.72
2023-01-13T09:57:12.577Z,62.66
2023-01-13T09:59:40.973Z,62.65
2023-01-13T10:02:26.197Z,62.28
2023-01-13T10:05:05.211Z,61.73
2023-01-13T10:07:40.072Z,61.66
2023-01-13T10:10:14.713Z,60.83
2023-01-13T10:13:01.208Z,60.47
2023-01-13T10:15:29.218Z,60.04
2023-01-13T10:18:10.427Z,60.49
2023-01-13T10:20:50.693Z,60.77
2023-01-13T10:23:40.254Z,60.88
2023-01-13T10:26:24.085Z,60.24
2023-01-13T10:28:53.623Z,59.81
2023-01-13T10:31:26.371Z,60.03
2023-01-13T10:34:04.112Z,60.16
2023-01-13T10:36:35.333Z,60.84
2023-01-13T10:39:14.124Z,61.14
2023-01-13T10:41:42.152Z,61.94
2023-01-13T10:44:16.954Z,61.46
2023-01-13T10:46:53.902Z,61.42
2023-01-13T10:49:32.801Z,61.02
2023-01-13T10:52:02.217Z,60.86
2023-01-13T10:54:31.081Z,60.50
2023-01-13T10:57:24.789Z,60.01
2023-01-13T10:59:53.463Z,59.57
2023-01-13T11:02:28.303Z,59.80
2023-01-13T11:05:22.839Z,60.00
2023-01-13T11:07:56.355Z,59.77
2023-01-13T11:10:27.721Z,58.92
2023-01-13T11:13:03.729Z,57.74
2023-01-13T11:15:41.142Z,58.66
2023-01-13T11:18:19.288Z,57.72
2023-01-13T11:20:52.666Z,58.31
2023-01-13T11:23:27.461Z,59.10
2023-01-13T11:26:01.708Z,60.14
2023-01-13T11:28:42.274Z,60.08
2023-01-13T11:31:18.858Z,60.16
2023-01-13T11:33:52.358Z,60.00
2023-01-13T11:36:26.119Z,60.42
2023-01-13T11:38:56.520Z,61.25
2023-01-13T11:41:43.942Z,60.61
2023-01-13T11:44:18.863Z,60.82
2023-01-13T11:46:50.288Z,60.91
2023-01-13T11:49:26.238Z,60.58
2023-01-13T11:52:01.905Z,59.22
2023-01-13T11:54:54.629Z,58.71
2023-01-13T11:57:52.143Z,57.19
2023-01-13T12:00:34.591Z,56.65
2023-01-13T12:03:23.533Z,57.36
2023-01-13T12:06:04.256Z,57.28
2023-01-13T12:08:56.875Z,57.46
2023-01-13T12:11:32.344Z,58.62
2023-01-13T12:14:15.521Z,57.99
2023-01-13T12:16:50.705Z,58.69
2023-01-13T12:19:28.282Z,58.42
2023-01-13T12:22:10.709Z,58.27
2023-01-13T12:24:46.967Z,58.67
2023-01-13T12:27:23.230Z,58.49
2023-01-13T12:29:59.768Z,58.45
2023-01-13T12:32:34.247Z,61.42
2023-01-13T12:35:21.459Z,64.82
2023-01-13T12:37:57.479Z,66.05
2023-01-13T12:40:43.939Z,66.02
2023-01-13T12:43:35.302Z,66.56
2023-01-13T12:46:35.020Z,66.54
2023-01-13T12:49:07.673Z,66.00
2023-01-13T12:51:38.208Z,65.67
2023-01-13T12:54:41.171Z,65.20
2023-01-13T12:57:22.566Z,63.80
2023-01-13T13:00:23.212Z,63.93
2023-01-13T13:03:29.179Z,63.26
2023-01-13T13:06:02.667Z,61.63
2023-01-13T13:08:53.464Z,62.15
2023-01-13T13:11:54.907Z,61.88
2023-01-13T13:15:03.085Z,61.13
2023-01-13T13:17:47.074Z,60.56
2023-01-13T13:20:50.767Z,60.83
2023-01-13T13:23:49.761Z,59.69
2023-01-13T13:26:38.301Z,59.29
2023-01-13T13:29:43.698Z,58.40
2023-01-13T13:32:35.342Z,56.69
2023-01-13T13:35:18.769Z,57.07
2023-01-13T13:38:14.336Z,57.27
2023-01-13T13:41:05.725Z,57.61
2023-01-13T13:43:58.783Z,57.34
2023-01-13T13:46:47.805Z,57.66
2023-01-13T13:49:17.009Z,57.90
2023-01-13T13:51:51.497Z,57.76
2023-01-13T13:54:23.015Z,58.05
2023-01-13T13:56:52.615Z,58.97
2023-01-13T13:59:24.394Z,59.50
2023-01-13T14:02:01.467Z,59.70
2023-01-13T14:04:32.027Z,59.48
2023-01-13T14:07:04.468Z,58.49
2023-01-13T14:09:45.028Z,59.37
2023-01-13T14:12:20.312Z,58.63
2023-01-13T14:14:49.565Z,58.86
2023-01-13T14:17:25.425Z,59.12
2023-01-13T14:19:57.504Z,58.46
2023-01-13T14:22:27.317Z,58.20
2023-01-13T14:24:57.821Z,58.51
2023-01-13T14:27:28.859Z,57.80
2023-01-13T14:29:59.059Z,57.50
2023-01-13T14:32:33.428Z,57.81
2023-01-13T14:35:01.790Z,58.11
2023-01-13T14:37:36.670Z,58.64
2023-01-13T14:40:05.699Z,57.39
2023-01-13T14:42:35.696Z,57.41
2023-01-13T14:45:04.303Z,55.36
2023-01-13T14:47:34.109Z,55.85
2023-01-13T14:50:05.474Z,55.36
2023-01-13T14:52:36.903Z,55.67
2023-01-13T14:55:32.658Z,55.79
2023-01-13T14:58:26.001Z,56.57
2023-01-13T15:01:30.816Z,56.74
2023-01-13T15:04:17.004Z,57.37
2023-01-13T15:06:48.194Z,57.38
2023-01-13T15:09:26.042Z,57.53
2023-01-13T15:11:55.050Z,58.02
2023-01-13T15:14:27.684Z,57.73
2023-01-13T15:16:55.664Z,57.70
2023-01-13T15:19:23.836Z,57.81
2023-01-13T15:21:52.291Z,57.76
2023-01-13T15:24:22.459Z,57.55
2023-01-13T15:26:50.529Z,58.04
2023-01-13T15:29:19.160Z,57.92
2023-01-13T15:31:47.153Z,57.41
2023-01-13T15:34:15.416Z,57.53
2023-01-13T15:36:43.780Z,57.60
2023-01-13T15:39:14.195Z,57.55
2023-01-13T15:42:01.051Z,57.57
2023-01-13T15:44:48.933Z,57.84
2023-01-13T15:47:17.143Z,58.07
2023-01-13T15:49:46.293Z,58.37
2023-01-13T15:52:20.364Z,58.87
2023-01-13T15:54:48.629Z,58.98
2023-01-13T15:57:23.126Z,59.33
2023-01-13T15:59:52.865Z,59.54
2023-01-13T16:02:22.643Z,59.92
2023-01-13T16:04:53.837Z,59.95
2023-01-13T16:07:23.577Z,60.41
2023-01-13T16:09:51.632Z,60.47
2023-01-13T16:12:24.436Z,60.18
2023-01-13T16:14:52.881Z,60.16
2023-01-13T16:17:24.871Z,60.04
2023-01-13T16:19:53.263Z,60.70
2023-01-13T16:22:21.334Z,60.74
2023-01-13T16:24:49.557Z,61.21
2023-01-13T16:27:19.741Z,61.27
2023-01-13T16:29:50.383Z,61.44
2023-01-13T16:32:19.753Z,62.08
2023-01-13T16:34:48.375Z,62.42
2023-01-13T16:37:21.382Z,62.13
2023-01-13T16:39:49.527Z,62.32
2023-01-13T16:42:21.171Z,62.01
2023-01-13T16:44:53.521Z,62.11
2023-01-13T16:47:22.833Z,62.14
2023-01-13T16:49:51.503Z,62.29
2023-01-13T16:52:19.476Z,62.54
2023-01-13T16:54:47.587Z,62.91
2023-01-13T16:57:16.089Z,63.30
2023-01-13T16:59:44.180Z,63.10
2023-01-13T17:02:15.798Z,62.92
2023-01-13T17:04:43.777Z,63.06
2023-01-13T17:07:17.434Z,62.83
2023-01-13T17:09:45.618Z,63.42
2023-01-13T17:12:13.598Z,64.23
2023-01-13T17:14:43.559Z,64.18
2023-01-13T17:17:22.908Z,64.08
2023-01-13T17:19:51.243Z,64.04
2023-01-13T17:22:20.248Z,64.67
2023-01-13T17:24:48.918Z,65.08
2023-01-13T17:27:18.628Z,65.79
2023-01-13T17:29:47.077Z,65.39
2023-01-13T17:32:20.225Z,65.30
2023-01-13T17:34:48.920Z,66.14
2023-01-13T17:37:17.329Z,65.94
2023-01-13T17:39:48.276Z,66.30
2023-01-13T17:42:16.474Z,66.83
2023-01-13T17:44:49.076Z,66.90
2023-01-13T17:47:21.723Z,67.65
2023-01-13T17:49:49.672Z,67.91
2023-01-13T17:52:17.841Z,68.82
2023-01-13T17:57:17.023Z,68.04
2023-01-13T17:59:47.011Z,68.49
2023-01-13T18:02:15.724Z,68.68
2023-01-13T18:04:45.748Z,68.42
2023-01-13T18:07:13.808Z,68.70
2023-01-13T18:09:42.061Z,69.79
2023-01-13T18:12:10.719Z,69.51
2023-01-13T18:14:38.879Z,69.48
2023-01-13T18:17:07.040Z,69.38
2023-01-13T18:19:52.334Z,69.26
2023-01-13T18:22:39.512Z,70.01
2023-01-13T18:25:30.209Z,71.05
2023-01-13T18:27:59.173Z,71.65
2023-01-13T18:30:27.234Z,71.19
2023-01-13T18:32:55.465Z,71.74
2023-01-13T18:35:23.452Z,72.34
2023-01-13T18:37:53.283Z,72.32
2023-01-13T18:40:21.508Z,72.08
2023-01-13T18:42:59.410Z,73.01
2023-01-13T18:45:29.611Z,73.87
2023-01-13T18:48:03.174Z,73.96
2023-01-13T18:50:31.905Z,73.91
2023-01-13T18:53:03.263Z,73.62
2023-01-13T18:55:34.379Z,73.73
2023-01-13T18:58:02.443Z,73.83
2023-01-13T19:00:36.455Z,73.18
2023-01-13T19:05:34.686Z,72.12
2023-01-13T19:08:04.922Z,72.66
2023-01-13T19:10:33.101Z,72.50
2023-01-13T19:13:02.364Z,72.40
2023-01-13T19:15:30.580Z,71.91
2023-01-13T19:17:58.679Z,72.01
2023-01-13T19:20:27.036Z,71.46
2023-01-13T19:22:55.230Z,71.82
2023-01-13T19:25:25.916Z,72.20
2023-01-13T19:27:56.096Z,72.56
2023-01-13T19:30:25.489Z,71.81
2023-01-13T19:32:53.631Z,72.03
2023-01-13T19:35:21.805Z,72.38
2023-01-13T19:37:49.857Z,73.07
2023-01-13T19:40:18.105Z,73.28
2023-01-13T19:43:05.213Z,73.04
2023-01-13T19:45:35.395Z,74.88
2023-01-13T19:48:05.520Z,74.14
2023-01-13T19:50:37.609Z,73.68
2023-01-13T19:53:06.069Z,73.26
2023-01-13T19:55:34.072Z,73.12
2023-01-13T19:58:04.194Z,73.35
2023-01-13T20:00:32.478Z,72.90
2023-01-13T20:03:03.576Z,72.93
2023-01-13T20:05:32.011Z,72.71
2023-01-13T20:08:00.221Z,73.76
2023-01-13T20:10:30.560Z,73.65
2023-01-13T20:12:59.046Z,74.03
2023-01-13T20:15:28.775Z,73.55
2023-01-13T20:17:57.947Z,73.42
2023-01-13T20:20:27.388Z,73.18
2023-01-13T20:22:55.469Z,73.25
2023-01-13T20:25:23.564Z,73.52
2023-01-13T20:27:51.690Z,73.27
2023-01-13T20:30:20.484Z,73.08
2023-01-13T20:32:50.680Z,72.85
2023-01-13T20:35:20.037Z,72.98
2023-01-13T20:37:48.041Z,73.08
2023-01-13T20:40:21.024Z,73.33
2023-01-13T20:42:48.160Z,73.48
2023-01-13T20:45:21.652Z,73.78
2023-01-13T20:47:51.193Z,73.05
2023-01-13T20:50:19.398Z,73.50
2023-01-13T20:52:48.061Z,73.37
2023-01-13T20:55:16.444Z,73.35
2023-01-13T20:57:48.473Z,73.39
2023-01-13T21:00:17.437Z,72.94
2023-01-13T21:02:45.574Z,73.76
2023-01-13T21:05:14.947Z,74.54
2023-01-13T21:07:42.936Z,75.02
2023-01-13T21:10:12.449Z,74.70
2023-01-13T21:12:58.500Z,73.96
2023-01-13T21:15:27.463Z,73.28
2023-01-13T21:18:12.853Z,74.46
2023-01-13T21:20:42.585Z,74.03
2023-01-13T21:23:11.911Z,74.07
2023-01-13T21:25:40.587Z,74.40
2023-01-13T21:28:11.761Z,74.34
2023-01-13T21:30:40.522Z,74.35
2023-01-13T21:33:09.006Z,74.40
2023-01-13T21:35:39.940Z,75.13
2023-01-13T21:38:10.907Z,75.87
2023-01-13T21:40:39.151Z,77.26
2023-01-13T21:43:24.400Z,79.89
2023-01-13T21:46:09.713Z,78.84
2023-01-13T21:48:37.849Z,77.66
2023-01-13T21:51:06.338Z,76.82
2023-01-13T21:53:35.919Z,76.00
2023-01-13T21:56:04.156Z,76.16
2023-01-13T21:58:34.882Z,76.05
2023-01-13T22:01:04.063Z,76.56
2023-01-13T22:03:52.825Z,76.87
2023-01-13T22:06:21.070Z,76.11
2023-01-13T22:08:50.633Z,75.84
2023-01-13T22:11:18.840Z,75.45
2023-01-13T22:14:04.235Z,75.38
2023-01-13T22:16:34.008Z,74.01
2023-01-13T22:19:02.039Z,75.14
2023-01-13T22:21:30.012Z,74.59
2023-01-13T22:24:00.211Z,74.05
2023-01-13T22:26:28.710Z,73.66
2023-01-13T22:28:56.688Z,74.54
2023-01-13T22:31:25.233Z,74.57
2023-01-13T22:33:53.660Z,74.03
2023-01-13T22:36:22.646Z,73.84
2023-01-13T22:38:54.752Z,73.36
2023-01-13T22:41:24.207Z,72.57
2023-01-13T22:43:54.273Z,72.86
2023-01-13T22:46:22.998Z,73.15
2023-01-13T22:48:56.615Z,73.08
2023-01-13T22:51:26.621Z,73.00
2023-01-13T22:53:57.970Z,72.46
2023-01-13T22:56:28.463Z,72.53
2023-01-13T22:59:00.625Z,71.84
2023-01-13T23:01:30.472Z,72.77
2023-01-13T23:03:59.043Z,72.32
2023-01-13T23:06:28.627Z,73.08
2023-01-13T23:08:59.239Z,72.17
2023-01-13T23:11:30.084Z,73.43
2023-01-13T23:13:59.752Z,73.57
2023-01-13T23:16:28.410Z,74.33
2023-01-13T23:18:56.553Z,74.25
2023-01-13T23:21:27.186Z,74.95
2023-01-13T23:23:56.802Z,74.92
2023-01-13T23:26:27.003Z,75.74
2023-01-13T23:28:59.661Z,77.42
2023-01-13T23:31:27.681Z,77.03
2023-01-13T23:33:55.597Z,76.39
2023-01-13T23:36:25.361Z,76.30
2023-01-13T23:38:54.137Z,76.81
2023-01-13T23:41:26.886Z,76.59
2023-01-13T23:43:57.838Z,76.77
2023-01-13T23:46:26.652Z,76.47
2023-01-13T23:48:55.594Z,75.87
2023-01-13T23:51:26.140Z,75.98
2023-01-13T23:53:55.037Z,76.10
2023-01-13T23:56:25.037Z,76.24
2023-01-13T23:58:53.379Z,76.53
